Terminal Aerodrome Forecast
Issued by NWS

Home | Current Version | Previous Version | Text Only | Print | Product List | Glossary On
Versions: 1 2 3 4 5 6 7 8 9 10 11 12 13 14 15
000
FTUS45 KTFX 272337
TAFHLN
TAF
KHLN 272337Z 2800/2824 10007KT P6SM VCTS BKN050CB
      TEMPO 2800/2802 6SM -TSRA BKN040CB
     FM280500 27005KT P6SM SCT050 BKN080
     FM281800 VRB06KT P6SM VCTS BKN050CB PROB30 2820/2824 VRB25G35KT
      4SM -TSRA BKN030CB=

USA.gov is the U.S. government's official web portal to all federal, state and local government web resources and services.